Needles, California
Current Conditions -  °F | °C
As of 11:56 PM on Friday 24 Oct 2014 (Local Time) from KEED Reporting Station
Clear Clear  
Wind Chill: 74°   Ceiling: Unl
Heat Index: 74°   Visibility: 10mi
Dew Point: 40°   Wind: 5mph
Humidity: 29%   Direction: 310°NW
Pressure: 29.96"   Gusts: NA
Location:  34.84°N, 114.6°W
Report Text: KEED 250656Z AUTO 31004KT 10SM CLR 23/04 A2996 RMK AO2 SLP118 T02330044
Loading
Personal Weather Stations






























Interactive Weather Map
Tropical Storm Tracking
New forecast layout! Learn more

10-Day Weather Forecast

Advertisements
Track Severe Weather on mobile